KSVH/SVH METAR and TAF weather

Enter ICAO airport designator
Station Type Date Time Source
KSVH METAR 2022/06/30 13:55 UTC NOAA

KSVH 301355Z AUTO 00000KT 10SM CLR 26/21 A3027 RMK AO2 T02590205


Station Type Date Time Source
KSVH Decoded METAR 2022/06/30 13:55 UTC NOAA

Statesville, Statesville Municipal Airport, NC, United States (KSVH) 35-45-55N 080-57-24W
Jun 30, 2022 - 09:55 AM EDT / 2022.06.30 1355 UTC
Wind: Calm:0
Visibility: 10 mile(s):0
Sky conditions: clear
Temperature: 78.6 F (25.9 C)
Dew Point: 68.9 F (20.5 C)
Relative Humidity: 72%
Pressure (altimeter): 30.27 in. Hg (1025 hPa)
ob: KSVH 301355Z AUTO 00000KT 10SM CLR 26/21 A3027 RMK AO2 T02590205
cycle: 14

Station Type Date Time Source
KSVH TAF UTC NOAA

Error!

Example: see airport list